createdAt,value
2022-11-12T00:02:21.711Z,40.85
2022-11-12T00:04:49.205Z,35.95
2022-11-12T00:07:16.790Z,40.53
2022-11-12T00:09:44.378Z,44.05
2022-11-12T00:12:12.640Z,42.55
2022-11-12T00:14:41.086Z,40.95
2022-11-12T00:17:08.655Z,39.08
2022-11-12T00:19:37.498Z,38.75
2022-11-12T00:22:04.981Z,42.67
2022-11-12T00:24:32.472Z,36.25
2022-11-12T00:27:02.964Z,35.95
2022-11-12T00:29:30.455Z,33.90
2022-11-12T00:31:57.977Z,45.33
2022-11-12T00:34:25.487Z,43.05
2022-11-12T00:36:54.497Z,45.33
2022-11-12T00:39:22.312Z,49.05
2022-11-12T00:41:50.179Z,35.90
2022-11-12T00:44:17.709Z,35.83
2022-11-12T00:46:45.509Z,41.92
2022-11-12T00:49:13.059Z,44.53
2022-11-12T00:51:40.575Z,38.50
2022-11-12T00:54:09.407Z,43.60
2022-11-12T00:56:37.300Z,38.08
2022-11-12T00:59:05.037Z,38.35
2022-11-12T01:01:32.575Z,35.22
2022-11-12T01:04:01.001Z,32.88
2022-11-12T01:06:28.545Z,40.53
2022-11-12T01:08:56.483Z,39.40
2022-11-12T01:11:25.897Z,45.90
2022-11-12T01:13:57.001Z,35.83
2022-11-12T01:16:26.238Z,35.03
2022-11-12T01:18:54.992Z,36.70
2022-11-12T01:21:22.910Z,36.38
2022-11-12T01:23:51.485Z,41.65
2022-11-12T01:26:20.307Z,42.60
2022-11-12T01:28:49.447Z,34.13
2022-11-12T01:31:18.089Z,31.65
2022-11-12T01:33:48.112Z,30.23
2022-11-12T01:36:16.242Z,38.78
2022-11-12T01:38:44.550Z,36.90
2022-11-12T01:41:13.115Z,39.67
2022-11-12T01:43:40.590Z,36.17
2022-11-12T01:46:14.445Z,40.72
2022-11-12T01:48:46.489Z,35.72
2022-11-12T01:51:14.482Z,39.95
2022-11-12T01:53:44.397Z,40.80
2022-11-12T01:56:12.058Z,37.85
2022-11-12T01:58:40.175Z,33.33
2022-11-12T02:01:07.850Z,34.65
2022-11-12T02:03:36.808Z,36.15
2022-11-12T02:06:07.280Z,40.88
2022-11-12T02:08:35.087Z,46.83
2022-11-12T02:11:11.376Z,37.00
2022-11-12T02:13:56.773Z,45.70
2022-11-12T02:16:24.581Z,36.70
2022-11-12T02:18:53.457Z,36.78
2022-11-12T02:21:22.475Z,34.60
2022-11-12T02:23:58.063Z,34.00
2022-11-12T02:26:25.703Z,34.15
2022-11-12T02:28:53.232Z,31.95
2022-11-12T02:31:20.846Z,31.73
2022-11-12T02:33:48.343Z,40.03
2022-11-12T02:36:16.251Z,33.00
2022-11-12T02:38:46.323Z,31.38
2022-11-12T02:41:14.349Z,34.17
2022-11-12T02:43:42.198Z,34.85
2022-11-12T02:46:09.778Z,25.17
2022-11-12T02:48:37.251Z,33.50
2022-11-12T02:51:05.465Z,31.42
2022-11-12T02:53:32.978Z,38.45
2022-11-12T02:56:02.123Z,33.70
2022-11-12T02:58:29.854Z,37.03
2022-11-12T03:00:57.783Z,36.53
2022-11-12T03:03:25.471Z,36.78
2022-11-12T03:05:56.843Z,46.13
2022-11-12T03:08:24.787Z,38.97
2022-11-12T03:10:52.867Z,42.00
2022-11-12T03:13:22.115Z,46.03
2022-11-12T03:15:49.676Z,47.25
2022-11-12T03:18:17.381Z,42.33
2022-11-12T03:20:44.934Z,30.98
2022-11-12T03:23:12.430Z,33.10
2022-11-12T03:25:40.152Z,29.17
2022-11-12T03:28:08.439Z,29.83
2022-11-12T03:30:38.237Z,28.15
2022-11-12T03:33:06.376Z,31.88
2022-11-12T03:35:34.704Z,36.92
2022-11-12T03:38:02.485Z,36.13
2022-11-12T03:40:30.388Z,31.40
2022-11-12T03:42:57.996Z,35.47
2022-11-12T03:45:26.466Z,38.75
2022-11-12T03:47:56.169Z,29.50
2022-11-12T03:50:26.220Z,37.10
2022-11-12T03:52:57.429Z,33.47
2022-11-12T03:55:26.330Z,29.80
2022-11-12T03:57:54.141Z,37.22
2022-11-12T04:00:22.544Z,34.20
2022-11-12T04:02:50.286Z,38.78
2022-11-12T04:05:36.866Z,30.67
2022-11-12T04:08:23.828Z,32.67
2022-11-12T04:10:51.652Z,38.83
2022-11-12T04:13:28.697Z,45.20
2022-11-12T04:16:14.409Z,29.00
2022-11-12T04:18:59.183Z,32.05
2022-11-12T04:21:47.231Z,32.40
2022-11-12T04:24:34.727Z,34.42
2022-11-12T04:27:01.347Z,37.13
2022-11-12T04:29:46.176Z,36.00
2022-11-12T04:32:13.704Z,34.17
2022-11-12T04:34:41.249Z,33.88
2022-11-12T04:37:10.203Z,28.20
2022-11-12T04:39:37.706Z,28.17
2022-11-12T04:42:22.841Z,32.63
2022-11-12T04:45:03.655Z,27.30
2022-11-12T04:47:32.109Z,30.80
2022-11-12T04:50:00.167Z,27.42
2022-11-12T04:52:29.674Z,32.30
2022-11-12T04:54:57.300Z,35.70
2022-11-12T04:57:24.990Z,35.95
2022-11-12T04:59:52.485Z,36.17
2022-11-12T05:02:20.025Z,39.95
2022-11-12T05:04:47.490Z,40.95
2022-11-12T05:07:15.510Z,41.42
2022-11-12T05:09:44.730Z,33.78
2022-11-12T05:12:12.531Z,29.92
2022-11-12T05:14:40.049Z,36.60
2022-11-12T05:17:07.551Z,34.55
2022-11-12T05:19:35.301Z,30.08
2022-11-12T05:22:17.412Z,31.88
2022-11-12T05:24:56.212Z,30.17
2022-11-12T05:27:23.716Z,30.40
2022-11-12T05:29:51.193Z,31.95
2022-11-12T05:32:18.733Z,33.80
2022-11-12T05:34:46.266Z,26.92
2022-11-12T05:37:14.551Z,33.53
2022-11-12T05:39:42.058Z,31.95
2022-11-12T05:42:13.707Z,34.00
2022-11-12T05:44:41.814Z,36.80
2022-11-12T05:47:09.329Z,33.97
2022-11-12T05:49:36.870Z,33.28
2022-11-12T05:52:04.445Z,34.92
2022-11-12T05:54:31.904Z,37.40
2022-11-12T05:56:59.474Z,33.35
2022-11-12T05:59:28.342Z,30.77
2022-11-12T06:01:55.881Z,31.95
2022-11-12T06:04:24.548Z,36.08
2022-11-12T06:06:52.078Z,40.17
2022-11-12T06:09:19.743Z,34.13
2022-11-12T06:11:47.228Z,31.30
2022-11-12T06:14:14.718Z,34.42
2022-11-12T06:16:43.866Z,34.58
2022-11-12T06:19:11.373Z,37.60
2022-11-12T06:21:38.870Z,37.72
2022-11-12T06:24:06.905Z,34.42
2022-11-12T06:26:34.382Z,33.58
2022-11-12T06:29:01.850Z,39.20
2022-11-12T06:31:29.417Z,41.92
2022-11-12T06:33:58.229Z,35.40
2022-11-12T06:36:25.700Z,40.55
2022-11-12T06:38:53.204Z,41.75
2022-11-12T06:41:20.784Z,37.92
2022-11-12T06:43:48.272Z,34.90
2022-11-12T06:46:16.761Z,35.22
2022-11-12T06:48:44.298Z,36.33
2022-11-12T06:51:16.660Z,38.40
2022-11-12T06:53:44.261Z,33.97
2022-11-12T06:56:11.802Z,35.55
2022-11-12T06:58:39.629Z,37.10
2022-11-12T07:01:11.587Z,35.53
2022-11-12T07:03:39.977Z,35.88
2022-11-12T07:06:09.173Z,34.90
2022-11-12T07:08:38.320Z,43.47
2022-11-12T07:11:06.589Z,36.40
2022-11-12T07:13:34.843Z,38.47
2022-11-12T07:16:02.722Z,37.05
2022-11-12T07:18:30.474Z,35.35
2022-11-12T07:20:59.125Z,46.65
2022-11-12T07:23:27.397Z,35.85
2022-11-12T07:25:59.994Z,31.67
2022-11-12T07:28:27.939Z,29.73
2022-11-12T07:30:56.237Z,29.17
2022-11-12T07:33:23.755Z,32.78
2022-11-12T07:35:57.473Z,38.95
2022-11-12T07:38:25.267Z,34.08
2022-11-12T07:40:52.928Z,38.90
2022-11-12T07:43:21.757Z,34.17
2022-11-12T07:45:49.386Z,24.63
2022-11-12T07:48:16.852Z,30.58
2022-11-12T07:50:44.373Z,37.00
2022-11-12T07:53:11.899Z,24.67
2022-11-12T07:55:39.451Z,22.42
2022-11-12T07:58:07.493Z,26.30
2022-11-12T08:00:36.359Z,30.20
2022-11-12T08:03:03.860Z,25.08
2022-11-12T08:05:31.344Z,20.95
2022-11-12T08:07:58.975Z,23.95
2022-11-12T08:10:26.832Z,21.83
2022-11-12T08:12:56.788Z,23.77
2022-11-12T08:15:24.563Z,29.95
2022-11-12T08:17:53.529Z,22.35
2022-11-12T08:20:21.050Z,22.25
2022-11-12T08:22:49.565Z,22.17
2022-11-12T08:25:17.293Z,24.35
2022-11-12T08:27:44.807Z,20.15
2022-11-12T08:30:13.033Z,18.75
2022-11-12T08:32:40.500Z,24.10
2022-11-12T08:35:09.820Z,26.70
2022-11-12T08:37:37.354Z,24.70
2022-11-12T08:40:05.018Z,26.80
2022-11-12T08:42:32.523Z,26.27
2022-11-12T08:45:00.081Z,33.55
2022-11-12T08:47:27.644Z,36.72
2022-11-12T08:49:55.157Z,24.85
2022-11-12T08:52:24.012Z,36.28
2022-11-12T08:54:51.500Z,33.92
2022-11-12T08:57:19.043Z,42.53
2022-11-12T08:59:46.579Z,35.40
2022-11-12T09:02:14.191Z,35.75
2022-11-12T09:04:41.768Z,32.70
2022-11-12T09:07:09.691Z,30.15
2022-11-12T09:09:44.639Z,37.42
2022-11-12T09:12:20.667Z,34.05
2022-11-12T09:14:53.474Z,23.98
2022-11-12T09:17:23.703Z,23.85
2022-11-12T09:19:51.697Z,27.15
2022-11-12T09:22:19.378Z,22.98
2022-11-12T09:24:50.754Z,26.67
2022-11-12T09:27:21.122Z,26.23
2022-11-12T09:29:51.539Z,25.08
2022-11-12T09:32:19.118Z,24.67
2022-11-12T09:35:13.036Z,26.17
2022-11-12T09:37:40.530Z,20.63
2022-11-12T09:40:17.555Z,20.25
2022-11-12T09:42:46.139Z,20.75
2022-11-12T09:45:15.024Z,16.08
2022-11-12T09:47:44.350Z,19.63
2022-11-12T09:50:17.486Z,16.83
2022-11-12T09:52:46.742Z,20.15
2022-11-12T09:55:19.817Z,22.95
2022-11-12T09:57:47.330Z,25.30
2022-11-12T10:00:17.495Z,24.23
2022-11-12T10:02:48.839Z,18.48
2022-11-12T10:05:23.366Z,23.20
2022-11-12T10:07:57.415Z,15.15
2022-11-12T10:10:33.623Z,18.05
2022-11-12T10:13:11.092Z,20.75
2022-11-12T10:15:57.901Z,18.80
2022-11-12T10:18:31.055Z,18.52
2022-11-12T10:21:03.124Z,15.85
2022-11-12T10:23:33.815Z,17.75
2022-11-12T10:26:10.216Z,14.93
2022-11-12T10:28:40.683Z,16.35
2022-11-12T10:31:11.912Z,20.00
2022-11-12T10:33:39.442Z,15.75
2022-11-12T10:36:16.411Z,16.40
2022-11-12T10:38:44.815Z,16.55
2022-11-12T10:41:30.928Z,16.08
2022-11-12T10:44:00.621Z,19.02
2022-11-12T10:46:29.270Z,17.40
2022-11-12T10:49:02.039Z,16.35
2022-11-12T10:51:31.296Z,15.80
2022-11-12T10:53:58.862Z,20.92
2022-11-12T10:56:27.835Z,18.00
2022-11-12T10:59:15.242Z,16.35
2022-11-12T11:01:45.717Z,24.17
2022-11-12T11:04:18.431Z,25.38
2022-11-12T11:06:46.218Z,23.95
2022-11-12T11:09:18.125Z,15.90
2022-11-12T11:11:53.579Z,23.58
2022-11-12T11:14:30.020Z,18.67
2022-11-12T11:16:59.682Z,16.67
2022-11-12T11:19:29.776Z,14.70
2022-11-12T11:22:03.295Z,17.48
2022-11-12T11:24:36.778Z,26.13
2022-11-12T11:27:05.812Z,25.75
2022-11-12T11:29:43.076Z,23.58
2022-11-12T11:32:16.053Z,18.30
2022-11-12T11:34:47.389Z,16.33
2022-11-12T11:37:27.427Z,28.05
2022-11-12T11:39:59.554Z,17.52
2022-11-12T11:42:35.563Z,16.83
2022-11-12T11:45:09.204Z,21.10
2022-11-12T11:47:59.899Z,16.27
2022-11-12T11:50:28.493Z,18.00
2022-11-12T11:53:02.469Z,23.88
2022-11-12T11:55:36.771Z,17.55
2022-11-12T12:00:36.239Z,22.95
2022-11-12T12:03:13.568Z,24.75
2022-11-12T12:05:42.845Z,31.38
2022-11-12T12:08:12.211Z,21.70
2022-11-12T12:11:06.910Z,19.42
2022-11-12T12:13:36.986Z,22.20
2022-11-12T12:16:19.700Z,20.00
2022-11-12T12:18:52.729Z,19.33
2022-11-12T12:21:21.034Z,19.98
2022-11-12T12:23:52.150Z,20.52
2022-11-12T12:26:22.875Z,19.63
2022-11-12T12:28:54.663Z,28.90
2022-11-12T12:31:25.362Z,20.25
2022-11-12T12:33:54.369Z,22.20
2022-11-12T12:36:25.753Z,19.42
2022-11-12T12:38:54.934Z,23.35
2022-11-12T12:41:27.734Z,30.92
2022-11-12T12:43:58.665Z,20.45
2022-11-12T12:46:28.698Z,20.10
2022-11-12T12:48:56.329Z,18.92
2022-11-12T12:51:26.634Z,19.13
2022-11-12T12:53:54.139Z,22.55
2022-11-12T12:56:42.334Z,25.88
2022-11-12T12:59:19.210Z,19.33
2022-11-12T13:01:54.848Z,21.17
2022-11-12T13:04:37.257Z,22.40
2022-11-12T13:07:08.654Z,31.42
2022-11-12T13:09:38.370Z,20.73
2022-11-12T13:12:24.366Z,18.08
2022-11-12T13:14:53.153Z,23.88
2022-11-12T13:17:39.432Z,20.27
2022-11-12T13:20:37.143Z,20.77
2022-11-12T13:23:10.145Z,18.67
2022-11-12T13:25:37.855Z,22.45
2022-11-12T13:28:06.632Z,18.42
2022-11-12T13:30:52.598Z,26.67
2022-11-12T13:33:24.777Z,22.83
2022-11-12T13:35:52.310Z,21.45
2022-11-12T13:38:21.270Z,23.98
2022-11-12T13:40:51.846Z,21.77
2022-11-12T13:43:23.108Z,20.30
2022-11-12T13:46:00.377Z,20.50
2022-11-12T13:48:29.855Z,18.88
2022-11-12T13:50:59.644Z,27.23
2022-11-12T13:53:29.250Z,25.35
2022-11-12T13:55:58.985Z,20.08
2022-11-12T13:58:28.463Z,24.63
2022-11-12T14:00:56.874Z,22.95
2022-11-12T14:03:25.530Z,22.98
2022-11-12T14:05:53.212Z,19.50
2022-11-12T14:08:29.494Z,21.83
2022-11-12T14:11:04.197Z,22.58
2022-11-12T14:13:46.565Z,23.80
2022-11-12T14:16:23.833Z,25.70
2022-11-12T14:19:17.338Z,24.00
2022-11-12T14:21:58.634Z,31.60
2022-11-12T14:24:26.305Z,21.77
2022-11-12T14:26:58.171Z,26.50
2022-11-12T14:29:30.007Z,16.60
2022-11-12T14:32:03.087Z,21.63
2022-11-12T14:34:32.369Z,20.88
2022-11-12T14:37:00.345Z,18.95
2022-11-12T14:39:29.920Z,17.45
2022-11-12T14:42:00.285Z,18.85
2022-11-12T14:44:32.011Z,17.17
2022-11-12T14:46:59.826Z,17.48
2022-11-12T14:49:39.368Z,15.45
2022-11-12T14:52:13.118Z,16.70
2022-11-12T14:54:42.620Z,17.00
2022-11-12T14:57:17.416Z,14.82
2022-11-12T14:59:47.596Z,14.38
2022-11-12T15:02:43.930Z,13.43
2022-11-12T15:05:04.511Z,9.32
